sensor_id;sensor_type;location;lat;lon;timestamp;P1;durP1;ratioP1;P2;durP2;ratioP2
7761;SDS011;3925;48.636;9.516;2022-10-18T00:00:04;8.07;;;5.00;;
7761;SDS011;3925;48.636;9.516;2022-10-18T00:02:32;5.40;;;4.87;;
7761;SDS011;3925;48.636;9.516;2022-10-18T00:04:59;6.53;;;5.93;;
7761;SDS011;3925;48.636;9.516;2022-10-18T00:07:25;11.30;;;5.67;;
7761;SDS011;3925;48.636;9.516;2022-10-18T00:09:52;5.20;;;4.70;;
7761;SDS011;3925;48.636;9.516;2022-10-18T00:12:19;7.73;;;6.30;;
7761;SDS011;3925;48.636;9.516;2022-10-18T00:14:48;9.50;;;5.87;;
7761;SDS011;3925;48.636;9.516;2022-10-18T00:17:15;7.50;;;5.10;;
7761;SDS011;3925;48.636;9.516;2022-10-18T00:19:42;7.53;;;5.27;;
7761;SDS011;3925;48.636;9.516;2022-10-18T00:22:10;9.30;;;5.40;;
7761;SDS011;3925;48.636;9.516;2022-10-18T00:24:37;5.83;;;5.27;;
7761;SDS011;3925;48.636;9.516;2022-10-18T00:27:04;6.90;;;5.10;;
7761;SDS011;3925;48.636;9.516;2022-10-18T00:29:31;5.80;;;5.17;;
7761;SDS011;3925;48.636;9.516;2022-10-18T00:31:59;5.80;;;4.90;;
7761;SDS011;3925;48.636;9.516;2022-10-18T00:34:26;5.73;;;5.07;;
7761;SDS011;3925;48.636;9.516;2022-10-18T00:36:52;6.27;;;5.47;;
7761;SDS011;3925;48.636;9.516;2022-10-18T00:39:20;9.33;;;4.93;;
7761;SDS011;3925;48.636;9.516;2022-10-18T00:41:47;5.60;;;5.10;;
7761;SDS011;3925;48.636;9.516;2022-10-18T00:47:20;4.80;;;4.40;;
7761;SDS011;3925;48.636;9.516;2022-10-18T00:49:48;10.27;;;5.97;;
7761;SDS011;3925;48.636;9.516;2022-10-18T00:52:20;6.77;;;5.33;;
7761;SDS011;3925;48.636;9.516;2022-10-18T00:54:49;6.40;;;4.80;;
7761;SDS011;3925;48.636;9.516;2022-10-18T00:57:17;5.67;;;5.27;;
7761;SDS011;3925;48.636;9.516;2022-10-18T00:59:44;5.93;;;5.43;;
7761;SDS011;3925;48.636;9.516;2022-10-18T01:02:11;8.27;;;5.53;;
7761;SDS011;3925;48.636;9.516;2022-10-18T01:04:43;9.90;;;5.10;;
7761;SDS011;3925;48.636;9.516;2022-10-18T01:07:13;8.07;;;5.77;;
7761;SDS011;3925;48.636;9.516;2022-10-18T01:09:54;7.37;;;5.57;;
7761;SDS011;3925;48.636;9.516;2022-10-18T01:12:31;5.67;;;5.17;;
7761;SDS011;3925;48.636;9.516;2022-10-18T01:15:11;6.20;;;5.10;;
7761;SDS011;3925;48.636;9.516;2022-10-18T01:17:53;5.47;;;4.93;;
7761;SDS011;3925;48.636;9.516;2022-10-18T01:20:40;6.83;;;4.23;;
7761;SDS011;3925;48.636;9.516;2022-10-18T01:23:29;8.43;;;4.87;;
7761;SDS011;3925;48.636;9.516;2022-10-18T01:26:08;7.17;;;5.50;;
7761;SDS011;3925;48.636;9.516;2022-10-18T01:28:48;6.80;;;5.30;;
7761;SDS011;3925;48.636;9.516;2022-10-18T01:31:22;6.80;;;4.87;;
7761;SDS011;3925;48.636;9.516;2022-10-18T01:33:54;10.63;;;4.83;;
7761;SDS011;3925;48.636;9.516;2022-10-18T01:36:24;6.87;;;6.00;;
7761;SDS011;3925;48.636;9.516;2022-10-18T01:38:56;6.80;;;4.90;;
7761;SDS011;3925;48.636;9.516;2022-10-18T01:41:26;6.00;;;5.50;;
7761;SDS011;3925;48.636;9.516;2022-10-18T01:43:55;6.33;;;5.10;;
7761;SDS011;3925;48.636;9.516;2022-10-18T01:46:25;8.33;;;5.13;;
7761;SDS011;3925;48.636;9.516;2022-10-18T01:48:54;10.63;;;5.80;;
7761;SDS011;3925;48.636;9.516;2022-10-18T01:51:22;6.00;;;5.07;;
7761;SDS011;3925;48.636;9.516;2022-10-18T01:53:50;7.53;;;5.00;;
7761;SDS011;3925;48.636;9.516;2022-10-18T01:56:22;9.47;;;6.70;;
7761;SDS011;3925;48.636;9.516;2022-10-18T01:59:02;6.77;;;5.20;;
7761;SDS011;3925;48.636;9.516;2022-10-18T02:01:40;6.80;;;4.93;;
7761;SDS011;3925;48.636;9.516;2022-10-18T02:04:14;5.97;;;5.37;;
7761;SDS011;3925;48.636;9.516;2022-10-18T02:06:50;11.27;;;5.40;;
7761;SDS011;3925;48.636;9.516;2022-10-18T02:09:22;14.60;;;8.20;;
7761;SDS011;3925;48.636;9.516;2022-10-18T02:11:55;7.13;;;5.87;;
7761;SDS011;3925;48.636;9.516;2022-10-18T02:14:23;11.13;;;5.90;;
7761;SDS011;3925;48.636;9.516;2022-10-18T02:16:53;11.67;;;5.63;;
7761;SDS011;3925;48.636;9.516;2022-10-18T02:19:23;7.37;;;4.70;;
7761;SDS011;3925;48.636;9.516;2022-10-18T02:21:53;6.10;;;5.50;;
7761;SDS011;3925;48.636;9.516;2022-10-18T02:24:23;8.93;;;5.70;;
7761;SDS011;3925;48.636;9.516;2022-10-18T02:26:52;7.80;;;5.97;;
7761;SDS011;3925;48.636;9.516;2022-10-18T02:29:19;6.13;;;5.60;;
7761;SDS011;3925;48.636;9.516;2022-10-18T02:31:46;11.27;;;6.77;;
7761;SDS011;3925;48.636;9.516;2022-10-18T02:34:18;9.77;;;6.63;;
7761;SDS011;3925;48.636;9.516;2022-10-18T02:36:48;5.93;;;5.33;;
7761;SDS011;3925;48.636;9.516;2022-10-18T02:39:20;9.30;;;6.40;;
7761;SDS011;3925;48.636;9.516;2022-10-18T02:41:48;6.67;;;6.07;;
7761;SDS011;3925;48.636;9.516;2022-10-18T02:44:15;6.00;;;5.03;;
7761;SDS011;3925;48.636;9.516;2022-10-18T02:46:42;6.90;;;5.47;;
7761;SDS011;3925;48.636;9.516;2022-10-18T02:49:10;7.57;;;5.53;;
7761;SDS011;3925;48.636;9.516;2022-10-18T02:51:38;6.73;;;4.67;;
7761;SDS011;3925;48.636;9.516;2022-10-18T02:54:05;7.27;;;4.20;;
7761;SDS011;3925;48.636;9.516;2022-10-18T02:56:32;4.10;;;3.70;;
7761;SDS011;3925;48.636;9.516;2022-10-18T02:58:59;6.40;;;4.07;;
7761;SDS011;3925;48.636;9.516;2022-10-18T03:01:27;4.90;;;4.40;;
7761;SDS011;3925;48.636;9.516;2022-10-18T03:03:54;4.67;;;4.23;;
7761;SDS011;3925;48.636;9.516;2022-10-18T03:06:21;9.53;;;6.30;;
7761;SDS011;3925;48.636;9.516;2022-10-18T03:08:49;9.13;;;5.40;;
7761;SDS011;3925;48.636;9.516;2022-10-18T03:11:16;5.87;;;5.30;;
7761;SDS011;3925;48.636;9.516;2022-10-18T03:13:43;6.93;;;5.93;;
7761;SDS011;3925;48.636;9.516;2022-10-18T03:16:10;6.10;;;5.50;;
7761;SDS011;3925;48.636;9.516;2022-10-18T03:18:37;6.23;;;5.63;;
7761;SDS011;3925;48.636;9.516;2022-10-18T03:21:04;9.10;;;5.60;;
7761;SDS011;3925;48.636;9.516;2022-10-18T03:23:31;5.50;;;5.00;;
7761;SDS011;3925;48.636;9.516;2022-10-18T03:26:00;6.37;;;5.47;;
7761;SDS011;3925;48.636;9.516;2022-10-18T03:28:27;6.37;;;4.63;;
7761;SDS011;3925;48.636;9.516;2022-10-18T03:30:58;11.30;;;5.93;;
7761;SDS011;3925;48.636;9.516;2022-10-18T03:33:25;5.00;;;4.60;;
7761;SDS011;3925;48.636;9.516;2022-10-18T03:35:51;10.30;;;5.40;;
7761;SDS011;3925;48.636;9.516;2022-10-18T03:38:18;6.67;;;6.13;;
7761;SDS011;3925;48.636;9.516;2022-10-18T03:40:45;5.63;;;4.93;;
7761;SDS011;3925;48.636;9.516;2022-10-18T03:43:13;6.00;;;4.87;;
7761;SDS011;3925;48.636;9.516;2022-10-18T03:45:40;4.73;;;4.33;;
7761;SDS011;3925;48.636;9.516;2022-10-18T03:48:07;7.27;;;5.53;;
7761;SDS011;3925;48.636;9.516;2022-10-18T03:50:34;8.70;;;5.20;;
7761;SDS011;3925;48.636;9.516;2022-10-18T03:53:01;9.50;;;5.70;;
7761;SDS011;3925;48.636;9.516;2022-10-18T03:55:28;8.70;;;5.33;;
7761;SDS011;3925;48.636;9.516;2022-10-18T03:57:55;5.70;;;4.87;;
7761;SDS011;3925;48.636;9.516;2022-10-18T04:00:23;5.77;;;5.13;;
7761;SDS011;3925;48.636;9.516;2022-10-18T04:02:50;6.00;;;5.03;;
7761;SDS011;3925;48.636;9.516;2022-10-18T04:05:17;9.80;;;5.30;;
7761;SDS011;3925;48.636;9.516;2022-10-18T04:07:44;7.20;;;5.10;;
7761;SDS011;3925;48.636;9.516;2022-10-18T04:10:10;6.67;;;5.57;;
7761;SDS011;3925;48.636;9.516;2022-10-18T04:12:37;12.27;;;5.17;;
7761;SDS011;3925;48.636;9.516;2022-10-18T04:15:04;8.50;;;5.30;;
7761;SDS011;3925;48.636;9.516;2022-10-18T04:17:34;4.90;;;4.50;;
7761;SDS011;3925;48.636;9.516;2022-10-18T04:20:00;5.87;;;5.33;;
7761;SDS011;3925;48.636;9.516;2022-10-18T04:22:27;5.80;;;5.00;;
7761;SDS011;3925;48.636;9.516;2022-10-18T04:24:54;10.00;;;6.33;;
7761;SDS011;3925;48.636;9.516;2022-10-18T04:27:21;6.37;;;5.23;;
7761;SDS011;3925;48.636;9.516;2022-10-18T04:29:49;8.00;;;6.53;;
7761;SDS011;3925;48.636;9.516;2022-10-18T04:32:15;5.20;;;4.70;;
7761;SDS011;3925;48.636;9.516;2022-10-18T04:34:44;6.70;;;5.23;;
7761;SDS011;3925;48.636;9.516;2022-10-18T04:37:10;5.43;;;4.93;;
7761;SDS011;3925;48.636;9.516;2022-10-18T04:39:37;8.83;;;5.60;;
7761;SDS011;3925;48.636;9.516;2022-10-18T04:42:04;5.83;;;5.33;;
7761;SDS011;3925;48.636;9.516;2022-10-18T04:44:31;5.97;;;5.37;;
7761;SDS011;3925;48.636;9.516;2022-10-18T04:46:58;7.03;;;5.63;;
7761;SDS011;3925;48.636;9.516;2022-10-18T04:49:25;15.80;;;6.70;;
7761;SDS011;3925;48.636;9.516;2022-10-18T04:51:53;6.43;;;4.77;;
7761;SDS011;3925;48.636;9.516;2022-10-18T04:54:20;6.53;;;5.27;;
7761;SDS011;3925;48.636;9.516;2022-10-18T04:56:47;5.93;;;5.33;;
7761;SDS011;3925;48.636;9.516;2022-10-18T04:59:13;8.03;;;5.67;;
7761;SDS011;3925;48.636;9.516;2022-10-18T05:01:40;7.13;;;5.10;;
7761;SDS011;3925;48.636;9.516;2022-10-18T05:04:07;5.87;;;5.27;;
7761;SDS011;3925;48.636;9.516;2022-10-18T05:06:34;5.33;;;4.93;;
7761;SDS011;3925;48.636;9.516;2022-10-18T05:09:03;8.20;;;5.60;;
7761;SDS011;3925;48.636;9.516;2022-10-18T05:11:30;10.93;;;5.77;;
7761;SDS011;3925;48.636;9.516;2022-10-18T05:13:57;6.77;;;5.63;;
7761;SDS011;3925;48.636;9.516;2022-10-18T05:16:24;13.10;;;5.30;;
7761;SDS011;3925;48.636;9.516;2022-10-18T05:18:52;8.83;;;5.07;;
7761;SDS011;3925;48.636;9.516;2022-10-18T05:21:19;9.13;;;6.13;;
7761;SDS011;3925;48.636;9.516;2022-10-18T05:23:46;9.10;;;6.10;;
7761;SDS011;3925;48.636;9.516;2022-10-18T05:26:14;6.60;;;5.70;;
7761;SDS011;3925;48.636;9.516;2022-10-18T05:28:42;6.60;;;5.77;;
7761;SDS011;3925;48.636;9.516;2022-10-18T05:31:09;9.10;;;5.80;;
7761;SDS011;3925;48.636;9.516;2022-10-18T05:33:36;7.20;;;5.43;;
7761;SDS011;3925;48.636;9.516;2022-10-18T05:36:03;8.60;;;5.53;;
7761;SDS011;3925;48.636;9.516;2022-10-18T05:38:30;10.47;;;5.73;;
7761;SDS011;3925;48.636;9.516;2022-10-18T05:40:57;8.73;;;5.80;;
7761;SDS011;3925;48.636;9.516;2022-10-18T05:43:27;10.23;;;6.33;;
7761;SDS011;3925;48.636;9.516;2022-10-18T05:45:54;7.43;;;5.90;;
7761;SDS011;3925;48.636;9.516;2022-10-18T05:48:21;5.87;;;4.93;;
7761;SDS011;3925;48.636;9.516;2022-10-18T05:50:48;11.67;;;5.10;;
7761;SDS011;3925;48.636;9.516;2022-10-18T05:53:15;6.97;;;5.40;;
7761;SDS011;3925;48.636;9.516;2022-10-18T05:55:42;7.30;;;5.00;;
7761;SDS011;3925;48.636;9.516;2022-10-18T05:58:09;7.63;;;5.33;;
7761;SDS011;3925;48.636;9.516;2022-10-18T06:00:37;6.80;;;5.57;;
7761;SDS011;3925;48.636;9.516;2022-10-18T06:03:04;7.00;;;4.73;;
7761;SDS011;3925;48.636;9.516;2022-10-18T06:05:31;9.63;;;5.47;;
7761;SDS011;3925;48.636;9.516;2022-10-18T06:07:58;8.67;;;5.90;;
7761;SDS011;3925;48.636;9.516;2022-10-18T06:10:25;6.10;;;5.50;;
7761;SDS011;3925;48.636;9.516;2022-10-18T06:12:52;6.13;;;5.00;;
7761;SDS011;3925;48.636;9.516;2022-10-18T06:15:18;9.90;;;5.13;;
7761;SDS011;3925;48.636;9.516;2022-10-18T06:17:47;7.00;;;5.47;;
7761;SDS011;3925;48.636;9.516;2022-10-18T06:20:13;7.30;;;5.30;;
7761;SDS011;3925;48.636;9.516;2022-10-18T06:22:41;6.67;;;6.03;;
7761;SDS011;3925;48.636;9.516;2022-10-18T06:25:08;7.57;;;6.27;;
7761;SDS011;3925;48.636;9.516;2022-10-18T06:27:35;8.50;;;6.07;;
7761;SDS011;3925;48.636;9.516;2022-10-18T06:30:02;6.37;;;5.43;;
7761;SDS011;3925;48.636;9.516;2022-10-18T06:32:29;8.60;;;5.77;;
7761;SDS011;3925;48.636;9.516;2022-10-18T06:34:57;11.50;;;5.73;;
7761;SDS011;3925;48.636;9.516;2022-10-18T06:37:24;9.37;;;6.40;;
7761;SDS011;3925;48.636;9.516;2022-10-18T06:39:53;7.17;;;6.20;;
7761;SDS011;3925;48.636;9.516;2022-10-18T06:42:20;8.83;;;6.00;;
7761;SDS011;3925;48.636;9.516;2022-10-18T06:44:47;10.33;;;5.83;;
7761;SDS011;3925;48.636;9.516;2022-10-18T06:47:14;6.67;;;5.53;;
7761;SDS011;3925;48.636;9.516;2022-10-18T06:49:41;7.27;;;6.50;;
7761;SDS011;3925;48.636;9.516;2022-10-18T06:52:09;7.97;;;6.90;;
7761;SDS011;3925;48.636;9.516;2022-10-18T06:54:36;7.00;;;5.73;;
7761;SDS011;3925;48.636;9.516;2022-10-18T06:57:03;7.03;;;6.40;;
7761;SDS011;3925;48.636;9.516;2022-10-18T06:59:30;6.87;;;6.27;;
7761;SDS011;3925;48.636;9.516;2022-10-18T07:01:56;6.27;;;5.63;;
7761;SDS011;3925;48.636;9.516;2022-10-18T07:04:25;7.53;;;6.10;;
7761;SDS011;3925;48.636;9.516;2022-10-18T07:06:53;10.90;;;5.17;;
7761;SDS011;3925;48.636;9.516;2022-10-18T07:09:21;8.07;;;5.20;;
7761;SDS011;3925;48.636;9.516;2022-10-18T07:11:48;7.87;;;5.63;;
7761;SDS011;3925;48.636;9.516;2022-10-18T07:14:16;7.07;;;5.10;;
7761;SDS011;3925;48.636;9.516;2022-10-18T07:16:43;5.30;;;4.80;;
7761;SDS011;3925;48.636;9.516;2022-10-18T07:19:10;9.30;;;6.47;;
7761;SDS011;3925;48.636;9.516;2022-10-18T07:21:37;7.30;;;5.20;;
7761;SDS011;3925;48.636;9.516;2022-10-18T07:24:04;6.90;;;5.00;;
7761;SDS011;3925;48.636;9.516;2022-10-18T07:26:33;6.47;;;5.37;;
7761;SDS011;3925;48.636;9.516;2022-10-18T07:29:03;7.00;;;5.20;;
7761;SDS011;3925;48.636;9.516;2022-10-18T07:31:32;5.30;;;4.80;;
7761;SDS011;3925;48.636;9.516;2022-10-18T07:33:59;8.10;;;4.33;;
7761;SDS011;3925;48.636;9.516;2022-10-18T07:36:26;4.73;;;4.10;;
7761;SDS011;3925;48.636;9.516;2022-10-18T07:38:53;5.47;;;4.00;;
7761;SDS011;3925;48.636;9.516;2022-10-18T07:41:20;4.40;;;3.53;;
7761;SDS011;3925;48.636;9.516;2022-10-18T07:43:49;4.37;;;3.50;;
7761;SDS011;3925;48.636;9.516;2022-10-18T07:46:17;5.00;;;3.20;;
7761;SDS011;3925;48.636;9.516;2022-10-18T07:48:45;5.73;;;4.00;;
7761;SDS011;3925;48.636;9.516;2022-10-18T07:51:12;4.27;;;3.90;;
7761;SDS011;3925;48.636;9.516;2022-10-18T07:53:40;4.73;;;3.20;;
7761;SDS011;3925;48.636;9.516;2022-10-18T07:56:07;5.87;;;3.03;;
7761;SDS011;3925;48.636;9.516;2022-10-18T07:58:39;4.33;;;3.80;;
7761;SDS011;3925;48.636;9.516;2022-10-18T08:01:08;3.33;;;3.03;;
7761;SDS011;3925;48.636;9.516;2022-10-18T08:03:35;4.57;;;2.70;;
7761;SDS011;3925;48.636;9.516;2022-10-18T08:06:04;3.63;;;3.27;;
7761;SDS011;3925;48.636;9.516;2022-10-18T08:08:32;5.60;;;3.17;;
7761;SDS011;3925;48.636;9.516;2022-10-18T08:11:01;4.53;;;3.40;;
7761;SDS011;3925;48.636;9.516;2022-10-18T08:13:29;2.80;;;2.60;;
7761;SDS011;3925;48.636;9.516;2022-10-18T08:15:58;4.07;;;2.87;;
7761;SDS011;3925;48.636;9.516;2022-10-18T08:18:27;5.10;;;3.50;;
7761;SDS011;3925;48.636;9.516;2022-10-18T08:20:54;6.37;;;3.20;;
7761;SDS011;3925;48.636;9.516;2022-10-18T08:23:21;3.60;;;3.30;;
7761;SDS011;3925;48.636;9.516;2022-10-18T08:25:48;5.10;;;3.47;;
7761;SDS011;3925;48.636;9.516;2022-10-18T08:28:15;6.33;;;4.07;;
7761;SDS011;3925;48.636;9.516;2022-10-18T08:30:42;5.30;;;3.10;;
7761;SDS011;3925;48.636;9.516;2022-10-18T08:33:09;8.20;;;3.23;;
7761;SDS011;3925;48.636;9.516;2022-10-18T08:35:37;6.73;;;3.40;;
7761;SDS011;3925;48.636;9.516;2022-10-18T08:38:04;3.73;;;3.30;;
7761;SDS011;3925;48.636;9.516;2022-10-18T08:40:35;5.50;;;3.63;;
7761;SDS011;3925;48.636;9.516;2022-10-18T08:43:09;7.90;;;3.93;;
7761;SDS011;3925;48.636;9.516;2022-10-18T08:45:43;4.13;;;3.30;;
7761;SDS011;3925;48.636;9.516;2022-10-18T08:48:15;6.43;;;3.00;;
7761;SDS011;3925;48.636;9.516;2022-10-18T08:50:47;4.17;;;3.80;;
7761;SDS011;3925;48.636;9.516;2022-10-18T08:53:16;6.50;;;3.20;;
7761;SDS011;3925;48.636;9.516;2022-10-18T08:55:49;4.80;;;3.30;;
7761;SDS011;3925;48.636;9.516;2022-10-18T08:58:21;3.53;;;2.53;;
7761;SDS011;3925;48.636;9.516;2022-10-18T09:00:53;3.07;;;2.60;;
7761;SDS011;3925;48.636;9.516;2022-10-18T09:03:37;3.17;;;2.60;;
7761;SDS011;3925;48.636;9.516;2022-10-18T09:06:20;2.70;;;2.50;;
7761;SDS011;3925;48.636;9.516;2022-10-18T09:08:56;5.70;;;2.90;;
7761;SDS011;3925;48.636;9.516;2022-10-18T09:11:35;4.30;;;3.00;;
7761;SDS011;3925;48.636;9.516;2022-10-18T09:14:23;5.80;;;2.87;;
7761;SDS011;3925;48.636;9.516;2022-10-18T09:17:09;6.80;;;2.77;;
7761;SDS011;3925;48.636;9.516;2022-10-18T09:19:45;3.60;;;2.40;;
7761;SDS011;3925;48.636;9.516;2022-10-18T09:22:23;3.73;;;2.17;;
7761;SDS011;3925;48.636;9.516;2022-10-18T09:24:59;6.90;;;2.60;;
7761;SDS011;3925;48.636;9.516;2022-10-18T09:27:32;5.77;;;2.93;;
7761;SDS011;3925;48.636;9.516;2022-10-18T09:30:07;3.70;;;2.03;;
7761;SDS011;3925;48.636;9.516;2022-10-18T09:32:43;2.87;;;2.40;;
7761;SDS011;3925;48.636;9.516;2022-10-18T09:35:15;4.53;;;2.30;;
7761;SDS011;3925;48.636;9.516;2022-10-18T09:37:47;5.97;;;2.80;;
7761;SDS011;3925;48.636;9.516;2022-10-18T09:40:16;3.73;;;2.07;;
7761;SDS011;3925;48.636;9.516;2022-10-18T09:42:50;3.23;;;2.70;;
7761;SDS011;3925;48.636;9.516;2022-10-18T09:45:22;4.40;;;2.50;;
7761;SDS011;3925;48.636;9.516;2022-10-18T09:47:55;2.53;;;2.33;;
7761;SDS011;3925;48.636;9.516;2022-10-18T09:50:29;3.43;;;2.37;;
7761;SDS011;3925;48.636;9.516;2022-10-18T09:53:04;5.77;;;2.57;;
7761;SDS011;3925;48.636;9.516;2022-10-18T09:55:41;2.80;;;2.10;;
7761;SDS011;3925;48.636;9.516;2022-10-18T09:58:20;7.17;;;3.07;;
7761;SDS011;3925;48.636;9.516;2022-10-18T10:00:49;4.40;;;2.70;;
7761;SDS011;3925;48.636;9.516;2022-10-18T10:03:17;3.50;;;3.20;;
7761;SDS011;3925;48.636;9.516;2022-10-18T10:05:44;3.00;;;2.53;;
7761;SDS011;3925;48.636;9.516;2022-10-18T10:08:13;3.00;;;2.70;;
7761;SDS011;3925;48.636;9.516;2022-10-18T10:10:41;7.07;;;2.83;;
7761;SDS011;3925;48.636;9.516;2022-10-18T10:13:14;3.73;;;3.40;;
7761;SDS011;3925;48.636;9.516;2022-10-18T10:15:51;10.90;;;3.20;;
7761;SDS011;3925;48.636;9.516;2022-10-18T10:18:20;6.10;;;3.53;;
7761;SDS011;3925;48.636;9.516;2022-10-18T10:20:49;5.30;;;2.97;;
7761;SDS011;3925;48.636;9.516;2022-10-18T10:23:20;7.90;;;3.40;;
7761;SDS011;3925;48.636;9.516;2022-10-18T10:25:52;4.40;;;3.10;;
7761;SDS011;3925;48.636;9.516;2022-10-18T10:28:21;5.10;;;3.27;;
7761;SDS011;3925;48.636;9.516;2022-10-18T10:30:49;4.00;;;3.17;;
7761;SDS011;3925;48.636;9.516;2022-10-18T10:33:33;4.03;;;2.80;;
7761;SDS011;3925;48.636;9.516;2022-10-18T10:36:01;4.20;;;3.30;;
7761;SDS011;3925;48.636;9.516;2022-10-18T10:38:30;3.37;;;3.03;;
7761;SDS011;3925;48.636;9.516;2022-10-18T10:40:58;4.27;;;3.10;;
7761;SDS011;3925;48.636;9.516;2022-10-18T10:43:25;6.27;;;2.90;;
7761;SDS011;3925;48.636;9.516;2022-10-18T10:45:56;6.30;;;2.63;;
7761;SDS011;3925;48.636;9.516;2022-10-18T10:48:26;3.27;;;2.63;;
7761;SDS011;3925;48.636;9.516;2022-10-18T10:50:58;6.13;;;3.40;;
7761;SDS011;3925;48.636;9.516;2022-10-18T10:53:39;3.43;;;3.00;;
7761;SDS011;3925;48.636;9.516;2022-10-18T10:56:23;4.03;;;3.07;;
7761;SDS011;3925;48.636;9.516;2022-10-18T10:58:52;9.20;;;3.50;;
7761;SDS011;3925;48.636;9.516;2022-10-18T11:01:21;3.00;;;2.70;;
7761;SDS011;3925;48.636;9.516;2022-10-18T11:03:51;5.17;;;2.80;;
7761;SDS011;3925;48.636;9.516;2022-10-18T11:06:24;10.97;;;3.60;;
7761;SDS011;3925;48.636;9.516;2022-10-18T11:12:17;5.07;;;2.60;;
7761;SDS011;3925;48.636;9.516;2022-10-18T11:14:51;3.83;;;2.40;;
7761;SDS011;3925;48.636;9.516;2022-10-18T11:17:25;4.00;;;2.50;;
7761;SDS011;3925;48.636;9.516;2022-10-18T11:19:58;2.80;;;2.30;;
7761;SDS011;3925;48.636;9.516;2022-10-18T11:22:37;2.07;;;1.97;;
7761;SDS011;3925;48.636;9.516;2022-10-18T11:25:08;3.97;;;2.17;;
7761;SDS011;3925;48.636;9.516;2022-10-18T11:27:40;3.63;;;2.33;;
7761;SDS011;3925;48.636;9.516;2022-10-18T11:30:16;4.07;;;2.37;;
7761;SDS011;3925;48.636;9.516;2022-10-18T11:32:53;4.57;;;2.20;;
7761;SDS011;3925;48.636;9.516;2022-10-18T11:35:30;2.47;;;1.87;;
7761;SDS011;3925;48.636;9.516;2022-10-18T11:38:12;3.17;;;2.50;;
7761;SDS011;3925;48.636;9.516;2022-10-18T11:43:42;3.20;;;2.63;;
7761;SDS011;3925;48.636;9.516;2022-10-18T11:46:17;4.90;;;2.20;;
7761;SDS011;3925;48.636;9.516;2022-10-18T11:48:59;8.00;;;2.60;;
7761;SDS011;3925;48.636;9.516;2022-10-18T11:51:59;4.37;;;2.40;;
7761;SDS011;3925;48.636;9.516;2022-10-18T11:54:40;2.93;;;2.20;;
7761;SDS011;3925;48.636;9.516;2022-10-18T11:57:21;4.43;;;3.30;;
7761;SDS011;3925;48.636;9.516;2022-10-18T12:00:02;4.77;;;2.40;;
7761;SDS011;3925;48.636;9.516;2022-10-18T12:02:43;3.40;;;2.87;;
7761;SDS011;3925;48.636;9.516;2022-10-18T12:05:21;4.00;;;2.33;;
7761;SDS011;3925;48.636;9.516;2022-10-18T12:07:50;6.97;;;3.17;;
7761;SDS011;3925;48.636;9.516;2022-10-18T12:10:24;3.10;;;2.83;;
7761;SDS011;3925;48.636;9.516;2022-10-18T12:12:56;3.30;;;2.67;;
7761;SDS011;3925;48.636;9.516;2022-10-18T12:15:27;3.23;;;2.83;;
7761;SDS011;3925;48.636;9.516;2022-10-18T12:17:57;5.80;;;2.90;;
7761;SDS011;3925;48.636;9.516;2022-10-18T12:20:29;3.43;;;2.60;;
7761;SDS011;3925;48.636;9.516;2022-10-18T12:22:58;3.57;;;2.50;;
7761;SDS011;3925;48.636;9.516;2022-10-18T12:25:28;3.10;;;2.80;;
7761;SDS011;3925;48.636;9.516;2022-10-18T12:27:59;3.83;;;3.00;;
7761;SDS011;3925;48.636;9.516;2022-10-18T12:30:40;5.70;;;3.53;;
7761;SDS011;3925;48.636;9.516;2022-10-18T12:33:12;3.00;;;2.70;;
7761;SDS011;3925;48.636;9.516;2022-10-18T12:35:48;3.93;;;3.17;;
7761;SDS011;3925;48.636;9.516;2022-10-18T12:38:26;4.83;;;2.70;;
7761;SDS011;3925;48.636;9.516;2022-10-18T12:40:56;3.43;;;3.13;;
7761;SDS011;3925;48.636;9.516;2022-10-18T12:43:24;3.43;;;2.97;;
7761;SDS011;3925;48.636;9.516;2022-10-18T12:45:58;4.20;;;3.60;;
7761;SDS011;3925;48.636;9.516;2022-10-18T12:48:28;5.77;;;3.37;;
7761;SDS011;3925;48.636;9.516;2022-10-18T12:50:57;5.13;;;3.50;;
7761;SDS011;3925;48.636;9.516;2022-10-18T12:53:28;6.10;;;4.00;;
7761;SDS011;3925;48.636;9.516;2022-10-18T12:56:16;6.40;;;4.10;;
7761;SDS011;3925;48.636;9.516;2022-10-18T13:02:14;4.17;;;3.40;;
7761;SDS011;3925;48.636;9.516;2022-10-18T13:04:48;5.07;;;3.27;;
7761;SDS011;3925;48.636;9.516;2022-10-18T13:07:16;4.07;;;3.57;;
7761;SDS011;3925;48.636;9.516;2022-10-18T13:16:09;4.13;;;3.50;;
7761;SDS011;3925;48.636;9.516;2022-10-18T13:18:56;4.57;;;4.27;;
7761;SDS011;3925;48.636;9.516;2022-10-18T13:21:28;5.10;;;3.33;;
7761;SDS011;3925;48.636;9.516;2022-10-18T13:24:11;3.70;;;3.37;;
7761;SDS011;3925;48.636;9.516;2022-10-18T13:26:50;5.07;;;3.87;;
7761;SDS011;3925;48.636;9.516;2022-10-18T13:29:34;4.27;;;3.50;;
7761;SDS011;3925;48.636;9.516;2022-10-18T13:32:17;5.20;;;3.53;;
7761;SDS011;3925;48.636;9.516;2022-10-18T13:34:50;5.40;;;3.63;;
7761;SDS011;3925;48.636;9.516;2022-10-18T13:37:19;5.23;;;3.37;;
7761;SDS011;3925;48.636;9.516;2022-10-18T13:39:49;5.10;;;3.40;;
7761;SDS011;3925;48.636;9.516;2022-10-18T13:42:19;3.67;;;3.37;;
7761;SDS011;3925;48.636;9.516;2022-10-18T13:48:13;5.50;;;4.40;;
7761;SDS011;3925;48.636;9.516;2022-10-18T13:54:21;6.20;;;3.27;;
7761;SDS011;3925;48.636;9.516;2022-10-18T13:57:05;3.53;;;2.70;;
7761;SDS011;3925;48.636;9.516;2022-10-18T14:02:43;7.27;;;2.53;;
7761;SDS011;3925;48.636;9.516;2022-10-18T14:08:18;4.03;;;2.57;;
7761;SDS011;3925;48.636;9.516;2022-10-18T14:10:51;2.97;;;2.47;;
7761;SDS011;3925;48.636;9.516;2022-10-18T14:13:25;4.47;;;3.20;;
7761;SDS011;3925;48.636;9.516;2022-10-18T14:15:57;5.03;;;2.70;;
7761;SDS011;3925;48.636;9.516;2022-10-18T14:18:30;4.90;;;2.93;;
7761;SDS011;3925;48.636;9.516;2022-10-18T14:21:00;4.70;;;4.17;;
7761;SDS011;3925;48.636;9.516;2022-10-18T14:23:31;6.57;;;2.80;;
7761;SDS011;3925;48.636;9.516;2022-10-18T14:26:06;5.57;;;2.80;;
7761;SDS011;3925;48.636;9.516;2022-10-18T14:28:34;3.63;;;3.00;;
7761;SDS011;3925;48.636;9.516;2022-10-18T14:31:02;4.00;;;3.57;;
7761;SDS011;3925;48.636;9.516;2022-10-18T14:33:32;4.67;;;3.10;;
7761;SDS011;3925;48.636;9.516;2022-10-18T14:36:07;3.30;;;2.50;;
7761;SDS011;3925;48.636;9.516;2022-10-18T14:38:45;3.30;;;3.10;;
7761;SDS011;3925;48.636;9.516;2022-10-18T14:41:16;8.10;;;3.63;;
7761;SDS011;3925;48.636;9.516;2022-10-18T14:43:46;3.40;;;3.10;;
7761;SDS011;3925;48.636;9.516;2022-10-18T14:46:15;4.40;;;3.23;;
7761;SDS011;3925;48.636;9.516;2022-10-18T14:48:51;3.63;;;2.73;;
7761;SDS011;3925;48.636;9.516;2022-10-18T14:51:18;2.60;;;2.40;;
7761;SDS011;3925;48.636;9.516;2022-10-18T14:53:47;6.23;;;2.77;;
7761;SDS011;3925;48.636;9.516;2022-10-18T14:56:23;3.40;;;2.67;;
7761;SDS011;3925;48.636;9.516;2022-10-18T14:58:53;3.00;;;2.70;;
7761;SDS011;3925;48.636;9.516;2022-10-18T15:01:22;2.73;;;2.53;;
7761;SDS011;3925;48.636;9.516;2022-10-18T15:03:54;4.30;;;2.70;;
7761;SDS011;3925;48.636;9.516;2022-10-18T15:06:22;3.20;;;2.90;;
7761;SDS011;3925;48.636;9.516;2022-10-18T15:08:53;3.43;;;2.67;;
7761;SDS011;3925;48.636;9.516;2022-10-18T15:11:22;3.37;;;2.47;;
7761;SDS011;3925;48.636;9.516;2022-10-18T15:13:51;6.50;;;3.03;;
7761;SDS011;3925;48.636;9.516;2022-10-18T15:16:21;6.60;;;2.70;;
7761;SDS011;3925;48.636;9.516;2022-10-18T15:18:59;3.73;;;2.43;;
7761;SDS011;3925;48.636;9.516;2022-10-18T15:21:28;2.33;;;2.03;;
7761;SDS011;3925;48.636;9.516;2022-10-18T15:26:46;4.00;;;3.57;;
7761;SDS011;3925;48.636;9.516;2022-10-18T15:29:15;2.83;;;2.63;;
7761;SDS011;3925;48.636;9.516;2022-10-18T15:31:44;4.63;;;2.50;;
7761;SDS011;3925;48.636;9.516;2022-10-18T15:34:14;2.97;;;2.40;;
7761;SDS011;3925;48.636;9.516;2022-10-18T15:36:44;2.10;;;2.00;;
7761;SDS011;3925;48.636;9.516;2022-10-18T15:39:13;5.90;;;2.63;;
7761;SDS011;3925;48.636;9.516;2022-10-18T15:41:45;2.60;;;2.40;;
7761;SDS011;3925;48.636;9.516;2022-10-18T15:44:18;4.93;;;2.97;;
7761;SDS011;3925;48.636;9.516;2022-10-18T15:46:48;4.97;;;2.73;;
7761;SDS011;3925;48.636;9.516;2022-10-18T15:49:34;3.20;;;2.50;;
7761;SDS011;3925;48.636;9.516;2022-10-18T15:58:12;9.90;;;5.87;;
7761;SDS011;3925;48.636;9.516;2022-10-18T16:00:43;7.27;;;5.90;;
7761;SDS011;3925;48.636;9.516;2022-10-18T16:03:11;10.80;;;6.53;;
7761;SDS011;3925;48.636;9.516;2022-10-18T16:05:38;9.47;;;7.90;;
7761;SDS011;3925;48.636;9.516;2022-10-18T16:08:14;10.83;;;7.20;;
7761;SDS011;3925;48.636;9.516;2022-10-18T16:10:45;6.17;;;5.57;;
7761;SDS011;3925;48.636;9.516;2022-10-18T16:13:14;6.40;;;5.17;;
7761;SDS011;3925;48.636;9.516;2022-10-18T16:15:41;5.33;;;4.23;;